首页
METAR-TAF:

METAR-TAF

机场 :

克林顿 / Burns Flat, 奧克拉荷馬州, 美国

纬度: 35-21-24N, 经度: 099-12-13W, 海拔: 585米

当前天气观测

该预报发布于44分钟前的20:53 UTC
风速16节,风向,有时为24节阵风
温度 30°C
湿度 27%
气压 1010 hPa
能見度: 16.1公里
天空无云

METAR: KCSM 172053Z 18016G24KT 10SM CLR 30/09 A2982 RMK AO2 SLP078 T03000094 58026

时间: 16:37 (21:37 UTC)

预报

该预报发布于4小时和17分钟前的17:20 UTC
预报有效从17日的 18点(UTC)到 18日的 18点(UTC)
风速15节,风向,有时为22节阵风
能見度: 10公里
散云层高于25000英尺
从 18日的 1300点(UTC)
风速14节,风向西转西北
能見度: 10公里
散云层高于25000英尺
从 18日的 1400点(UTC)
风速22节,风向北转西北,有时为29节阵风
能見度: 10公里
多云层高于25000英尺
从 18日的 1500点(UTC)
风速26节,风向北转西北,有时为34节阵风
能見度: 10公里
散云层高于25000英尺

TAF: KCSM 171720Z 1718/1818 17015G22KT P6SM SCT250 FM181300 29014KT P6SM SCT250 FM181400 34022G29KT P6SM BKN250 FM181500 34026G34KT P6SM SCT250

超过4000个机场的气象观测和天气预报(METAR&TAF报告)。

可查询的气象台以黄色和红色小点在地图上表示。

将鼠标移到小点上方,可查看气象台名称。

然后点击查看天气观测和预报。

如需切换地图:点击带黑十字的绿色按钮放大地图;点击带横线的绿色按钮缩小地图;或者点击绿色箭头查看邻近地区的地图。


METAR-TAF: